createdAt,value
2017-01-22T00:00:27.197Z,99.6
2017-01-22T00:01:27.172Z,99.79
2017-01-22T00:02:27.150Z,99.99
2017-01-22T00:03:27.122Z,99.99
2017-01-22T00:04:27.100Z,99.99
2017-01-22T00:05:27.073Z,99.74
2017-01-22T00:06:27.052Z,99.74
2017-01-22T00:07:27.020Z,99.74
2017-01-22T00:08:26.998Z,99.74
2017-01-22T00:09:26.971Z,99.84
2017-01-22T00:10:26.970Z,99.18
2017-01-22T00:11:26.918Z,99.55
2017-01-22T00:12:26.901Z,99.46
2017-01-22T00:13:26.871Z,99.46
2017-01-22T00:14:26.847Z,99.84
2017-01-22T00:15:26.821Z,99.93
2017-01-22T00:16:26.795Z,99.93
2017-01-22T00:17:26.771Z,99.84
2017-01-22T00:18:26.742Z,99.84
2017-01-22T00:19:26.723Z,99.08
2017-01-22T00:20:26.695Z,99.99
2017-01-22T00:21:26.672Z,99.84
2017-01-22T00:22:26.646Z,99.55
2017-01-22T00:23:26.620Z,99.65
2017-01-22T00:24:26.593Z,99.84
2017-01-22T00:25:26.575Z,99.46
2017-01-22T00:26:26.545Z,99.37
2017-01-22T00:27:26.515Z,99.46
2017-01-22T00:28:26.496Z,99.74
2017-01-22T00:29:26.482Z,99.46
2017-01-22T00:30:26.453Z,99.55
2017-01-22T00:31:26.447Z,99.84
2017-01-22T00:32:26.391Z,99.84
2017-01-22T00:33:26.382Z,98.71
2017-01-22T00:34:26.340Z,99.08
2017-01-22T00:35:26.314Z,98.99
2017-01-22T00:36:26.289Z,98.99
2017-01-22T00:37:26.273Z,99.27
2017-01-22T00:38:26.267Z,98.8
2017-01-22T00:39:26.216Z,98.8
2017-01-22T00:40:26.187Z,98.9
2017-01-22T00:41:26.162Z,98.99
2017-01-22T00:42:26.142Z,98.99
2017-01-22T00:43:26.113Z,98.71
2017-01-22T00:44:26.086Z,98.99
2017-01-22T00:45:26.063Z,98.9
2017-01-22T00:46:26.041Z,98.9
2017-01-22T00:47:26.016Z,98.99
2017-01-22T00:48:25.985Z,98.99
2017-01-22T00:49:25.965Z,98.71
2017-01-22T00:50:25.988Z,98.9
2017-01-22T00:51:25.912Z,98.8
2017-01-22T00:52:25.883Z,98.71
2017-01-22T00:53:25.883Z,98.8
2017-01-22T00:54:25.835Z,98.9
2017-01-22T00:55:25.811Z,98.8
2017-01-22T00:56:25.780Z,98.8
2017-01-22T00:57:25.757Z,99.08
2017-01-22T00:58:25.734Z,98.99
2017-01-22T00:59:25.703Z,98.71
2017-01-22T01:00:25.682Z,98.8
2017-01-22T01:01:25.656Z,98.42
2017-01-22T01:02:25.631Z,98.23
2017-01-22T01:03:25.603Z,98.52
2017-01-22T01:04:25.578Z,98.33
2017-01-22T01:05:25.556Z,98.42
2017-01-22T01:06:25.527Z,98.42
2017-01-22T01:07:25.500Z,98.42
2017-01-22T01:08:25.481Z,98.42
2017-01-22T01:09:25.453Z,98.42
2017-01-22T01:10:25.426Z,98.52
2017-01-22T01:11:25.400Z,98.42
2017-01-22T01:12:25.377Z,98.61
2017-01-22T01:13:25.358Z,98.99
2017-01-22T01:14:25.327Z,98.99
2017-01-22T01:15:25.301Z,98.71
2017-01-22T01:16:25.290Z,98.9
2017-01-22T01:17:25.249Z,98.8
2017-01-22T01:18:25.221Z,98.99
2017-01-22T01:19:25.197Z,98.71
2017-01-22T01:20:25.172Z,99.08
2017-01-22T01:21:25.165Z,98.9
2017-01-22T01:22:25.122Z,99.08
2017-01-22T01:23:25.104Z,98.9
2017-01-22T01:24:25.086Z,98.9
2017-01-22T01:25:25.043Z,98.71
2017-01-22T01:26:25.021Z,99.18
2017-01-22T01:27:24.996Z,98.99
2017-01-22T01:28:24.970Z,98.71
2017-01-22T01:29:24.993Z,98.9
2017-01-22T01:30:24.928Z,98.99
2017-01-22T01:31:24.892Z,98.9
2017-01-22T01:32:24.865Z,98.9
2017-01-22T01:33:24.839Z,98.9
2017-01-22T01:34:24.816Z,99.18
2017-01-22T01:35:24.787Z,98.9
2017-01-22T01:36:24.765Z,98.99
2017-01-22T01:37:24.760Z,99.08
2017-01-22T01:38:24.714Z,98.99
2017-01-22T01:39:24.686Z,98.23
2017-01-22T01:40:24.687Z,98.52
2017-01-22T01:41:24.639Z,98.14
2017-01-22T01:42:24.614Z,98.71
2017-01-22T01:43:24.583Z,98.33
2017-01-22T01:44:24.558Z,97.95
2017-01-22T01:45:24.532Z,97.38
2017-01-22T01:46:24.503Z,97.19
2017-01-22T01:47:24.482Z,98.23
2017-01-22T01:48:24.482Z,98.23
2017-01-22T01:49:24.425Z,98.23
2017-01-22T01:50:24.400Z,98.14
2017-01-22T01:51:24.783Z,98.14
2017-01-22T01:52:24.352Z,98.42
2017-01-22T01:53:24.326Z,98.33
2017-01-22T01:54:24.304Z,98.33
2017-01-22T01:55:24.274Z,98.71
2017-01-22T01:56:24.251Z,98.52
2017-01-22T01:57:24.224Z,98.99
2017-01-22T01:58:24.201Z,99.08
2017-01-22T01:59:24.172Z,99.18
2017-01-22T02:00:24.151Z,98.9
2017-01-22T02:01:24.120Z,99.08
2017-01-22T02:02:24.093Z,99.84
2017-01-22T02:03:24.071Z,99.65
2017-01-22T02:04:24.039Z,99.46
2017-01-22T02:05:24.018Z,99.74
2017-01-22T02:06:23.989Z,98.9
2017-01-22T02:07:23.964Z,99.18
2017-01-22T02:08:23.937Z,98.99
2017-01-22T02:09:23.910Z,98.99
2017-01-22T02:10:23.883Z,99.74
2017-01-22T02:11:23.858Z,99.74
2017-01-22T02:12:23.835Z,99.55
2017-01-22T02:13:23.808Z,99.55
2017-01-22T02:14:23.780Z,99.55
2017-01-22T02:15:23.759Z,99.55
2017-01-22T02:16:23.730Z,99.55
2017-01-22T02:17:23.708Z,99.55
2017-01-22T02:18:23.679Z,99.74
2017-01-22T02:19:23.656Z,99.46
2017-01-22T02:20:23.625Z,99.46
2017-01-22T02:21:23.627Z,99.99
2017-01-22T02:22:23.579Z,99.84
2017-01-22T02:23:23.549Z,99.84
2017-01-22T02:24:23.522Z,99.84
2017-01-22T02:25:23.495Z,99.65
2017-01-22T02:26:23.471Z,99.88
2017-01-22T02:27:23.445Z,99.99
2017-01-22T02:28:23.418Z,99.6
2017-01-22T02:29:23.391Z,99.88
2017-01-22T02:30:23.364Z,99.99
2017-01-22T02:31:23.345Z,99.6
2017-01-22T02:32:23.318Z,99.99
2017-01-22T02:33:23.292Z,99.99
2017-01-22T02:34:23.260Z,99.99
2017-01-22T02:35:23.237Z,99.99
2017-01-22T02:36:23.207Z,99.99
2017-01-22T02:37:23.183Z,99.99
2017-01-22T02:38:23.155Z,99.99
2017-01-22T02:39:23.131Z,99.99
2017-01-22T02:40:23.106Z,99.99
2017-01-22T02:41:23.078Z,99.99
2017-01-22T02:42:23.049Z,99.99
2017-01-22T02:43:23.026Z,99.99
2017-01-22T02:44:22.998Z,99.98
2017-01-22T02:45:22.971Z,99.99
2017-01-22T02:46:22.944Z,99.99
2017-01-22T02:47:22.919Z,99.99
2017-01-22T02:48:22.897Z,99.98
2017-01-22T02:49:22.869Z,99.99
2017-01-22T02:50:22.840Z,99.99
2017-01-22T02:51:22.819Z,99.99
2017-01-22T02:52:22.789Z,99.99
2017-01-22T02:53:22.764Z,99.99
2017-01-22T02:54:22.735Z,99.99
2017-01-22T02:55:22.711Z,99.99
2017-01-22T02:56:22.685Z,99.99
2017-01-22T02:57:22.659Z,99.99
2017-01-22T02:58:22.631Z,99.99
2017-01-22T02:59:22.614Z,99.99
2017-01-22T03:00:22.578Z,99.99
2017-01-22T03:01:22.551Z,99.99
2017-01-22T03:02:22.552Z,99.99
2017-01-22T03:03:22.498Z,99.99
2017-01-22T03:04:22.473Z,99.99
2017-01-22T03:05:22.448Z,99.99
2017-01-22T03:06:22.418Z,99.99
2017-01-22T03:07:22.399Z,99.99
2017-01-22T03:08:22.366Z,99.99
2017-01-22T03:09:22.344Z,99.99
2017-01-22T03:10:22.316Z,99.69
2017-01-22T03:11:22.285Z,99.98
2017-01-22T03:12:22.260Z,99.98
2017-01-22T03:13:22.263Z,99.98
2017-01-22T03:14:22.208Z,99.99
2017-01-22T03:15:22.181Z,99.79
2017-01-22T03:16:22.154Z,99.51
2017-01-22T03:17:22.132Z,99.69
2017-01-22T03:18:22.106Z,99.41
2017-01-22T03:19:22.092Z,99.41
2017-01-22T03:20:22.068Z,99.69
2017-01-22T03:21:22.022Z,99.51
2017-01-22T03:22:21.993Z,99.51
2017-01-22T03:23:21.969Z,99.51
2017-01-22T03:24:21.943Z,99.41
2017-01-22T03:25:21.921Z,99.22
2017-01-22T03:26:21.896Z,99.41
2017-01-22T03:27:21.867Z,99.6
2017-01-22T03:28:21.845Z,99.13
2017-01-22T03:29:21.812Z,99.41
2017-01-22T03:30:21.784Z,99.41
2017-01-22T03:31:21.758Z,99.41
2017-01-22T03:32:21.734Z,99.22
2017-01-22T03:33:21.709Z,99.6
2017-01-22T03:34:21.677Z,99.6
2017-01-22T03:35:21.653Z,99.41
2017-01-22T03:36:21.628Z,99.32
2017-01-22T03:37:21.602Z,99.51
2017-01-22T03:38:21.576Z,99.41
2017-01-22T03:39:21.543Z,99.22
2017-01-22T03:40:21.516Z,99.41
2017-01-22T03:41:21.491Z,99.41
2017-01-22T03:42:21.462Z,99.32
2017-01-22T03:43:21.441Z,99.32
2017-01-22T03:44:21.416Z,99.6
2017-01-22T03:45:21.387Z,99.6
2017-01-22T03:46:21.359Z,99.41
2017-01-22T03:47:21.332Z,99.22
2017-01-22T03:48:21.306Z,99.51
2017-01-22T03:49:21.279Z,99.41
2017-01-22T03:50:21.282Z,99.69
2017-01-22T03:51:21.224Z,99.6
2017-01-22T03:52:21.200Z,99.6
2017-01-22T03:53:21.188Z,99.32
2017-01-22T03:54:21.150Z,99.41
2017-01-22T03:55:21.121Z,99.32
2017-01-22T03:56:21.091Z,99.13
2017-01-22T03:57:21.064Z,99.51
2017-01-22T03:58:21.037Z,99.88
2017-01-22T03:59:21.011Z,99.51
2017-01-22T04:00:20.985Z,99.6
2017-01-22T04:01:20.961Z,99.51
2017-01-22T04:02:20.932Z,99.41
2017-01-22T04:03:20.903Z,99.41
2017-01-22T04:04:21.277Z,99.51
2017-01-22T04:05:20.854Z,98.94
2017-01-22T04:06:20.824Z,99.03
2017-01-22T04:07:20.797Z,98.65
2017-01-22T04:08:20.771Z,98.84
2017-01-22T04:09:20.744Z,99.6
2017-01-22T04:10:20.730Z,99.41
2017-01-22T04:11:20.694Z,99.32
2017-01-22T04:12:20.662Z,99.51
2017-01-22T04:13:20.639Z,99.69
2017-01-22T04:14:20.616Z,99.99
2017-01-22T04:15:20.607Z,99.88
2017-01-22T04:16:20.559Z,99.6
2017-01-22T04:17:20.535Z,99.69
2017-01-22T04:18:20.504Z,99.99
2017-01-22T04:19:20.483Z,99.99
2017-01-22T04:20:20.451Z,99.99
2017-01-22T04:21:20.449Z,99.98
2017-01-22T04:22:20.400Z,99.99
2017-01-22T04:23:20.373Z,99.99
2017-01-22T04:24:20.344Z,99.99
2017-01-22T04:25:20.320Z,99.99
2017-01-22T04:26:20.293Z,99.99
2017-01-22T04:27:20.258Z,99.99
2017-01-22T04:28:20.238Z,99.99
2017-01-22T04:29:20.208Z,99.99
2017-01-22T04:30:20.180Z,99.99
2017-01-22T04:31:20.156Z,99.99
2017-01-22T04:32:20.130Z,99.99
2017-01-22T04:33:20.101Z,99.99
2017-01-22T04:34:20.071Z,99.99
2017-01-22T04:35:20.045Z,99.99
2017-01-22T04:36:20.019Z,99.99
2017-01-22T04:37:19.994Z,99.99
2017-01-22T04:38:19.967Z,99.99
2017-01-22T04:39:19.938Z,99.99
2017-01-22T04:40:19.912Z,99.99
2017-01-22T04:41:19.889Z,99.99
2017-01-22T04:42:19.859Z,99.99
2017-01-22T04:43:19.832Z,99.99
2017-01-22T04:44:19.802Z,99.99
2017-01-22T04:45:19.774Z,99.99
2017-01-22T04:46:19.753Z,99.99
2017-01-22T04:47:19.744Z,99.99
2017-01-22T04:48:19.698Z,99.99
2017-01-22T04:49:19.669Z,99.99
2017-01-22T04:50:19.646Z,99.99
2017-01-22T04:51:19.662Z,99.99
2017-01-22T04:52:19.587Z,99.99
2017-01-22T04:53:19.560Z,99.99
2017-01-22T04:54:19.533Z,99.99
2017-01-22T04:55:19.505Z,99.99
2017-01-22T04:56:19.478Z,99.99
2017-01-22T04:57:19.455Z,99.99
2017-01-22T04:58:19.428Z,99.99
2017-01-22T04:59:19.400Z,99.99
2017-01-22T05:00:19.375Z,99.99
2017-01-22T05:01:19.347Z,99.99
2017-01-22T05:02:19.321Z,99.99
2017-01-22T05:03:19.291Z,99.99
2017-01-22T05:04:19.262Z,99.99
2017-01-22T05:05:19.631Z,99.99
2017-01-22T05:06:19.212Z,99.99
2017-01-22T05:07:19.185Z,99.99
2017-01-22T05:08:19.152Z,99.99
2017-01-22T05:09:19.128Z,99.99
2017-01-22T05:10:19.097Z,99.99
2017-01-22T05:11:19.469Z,99.98
2017-01-22T05:12:19.042Z,99.99
2017-01-22T05:13:19.018Z,99.99
2017-01-22T05:14:19.386Z,99.99
2017-01-22T05:15:18.961Z,99.99
2017-01-22T05:16:18.932Z,99.99
2017-01-22T05:17:18.912Z,99.99
2017-01-22T05:18:18.879Z,99.99
2017-01-22T05:19:18.851Z,99.99
2017-01-22T05:20:18.826Z,99.99
2017-01-22T05:21:18.808Z,99.99
2017-01-22T05:22:18.772Z,99.99
2017-01-22T05:23:18.745Z,99.99
2017-01-22T05:24:18.719Z,99.99
2017-01-22T05:25:18.694Z,99.99
2017-01-22T05:26:18.660Z,99.99
2017-01-22T05:27:18.638Z,99.99
2017-01-22T05:28:18.608Z,99.99
2017-01-22T05:29:18.579Z,99.99
2017-01-22T05:30:18.551Z,99.99
2017-01-22T05:31:18.526Z,99.98
2017-01-22T05:32:18.503Z,99.99
2017-01-22T05:33:18.470Z,99.99
2017-01-22T05:34:18.442Z,99.99
2017-01-22T05:35:18.416Z,99.99
2017-01-22T05:36:18.385Z,99.99
2017-01-22T05:37:18.359Z,99.99
2017-01-22T05:38:18.333Z,99.79
2017-01-22T05:39:18.313Z,99.79
2017-01-22T05:40:18.288Z,99.99
2017-01-22T05:41:18.251Z,99.99
2017-01-22T05:42:18.223Z,99.99
2017-01-22T05:43:18.222Z,99.99
2017-01-22T05:44:18.168Z,99.99
2017-01-22T05:45:18.145Z,99.99
2017-01-22T05:46:18.118Z,99.99
2017-01-22T05:47:18.085Z,99.64
2017-01-22T05:48:18.059Z,99.99
2017-01-22T05:49:18.428Z,99.99
2017-01-22T05:50:18.005Z,99.99
2017-01-22T05:51:17.982Z,99.99
2017-01-22T05:52:18.154Z,99.99
2017-01-22T05:53:18.321Z,99.99
2017-01-22T05:54:17.893Z,99.99
2017-01-22T05:55:17.872Z,99.99
2017-01-22T05:56:17.842Z,99.99
2017-01-22T05:57:17.814Z,99.99
2017-01-22T05:58:17.787Z,99.99
2017-01-22T05:59:17.761Z,99.99
2017-01-22T06:00:17.737Z,99.99
2017-01-22T06:01:17.703Z,99.99
2017-01-22T06:02:17.676Z,99.99
2017-01-22T06:03:17.656Z,99.99
2017-01-22T06:04:17.620Z,99.99
2017-01-22T06:05:17.595Z,99.99
2017-01-22T06:06:17.570Z,99.99
2017-01-22T06:07:17.539Z,99.99
2017-01-22T06:08:17.512Z,99.99
2017-01-22T06:09:17.487Z,99.99
2017-01-22T06:10:17.456Z,99.99
2017-01-22T06:11:17.431Z,99.99
2017-01-22T06:12:17.403Z,99.99
2017-01-22T06:13:17.373Z,99.99
2017-01-22T06:14:17.351Z,99.99
2017-01-22T06:15:17.323Z,99.99
2017-01-22T06:16:17.316Z,99.99
2017-01-22T06:17:17.267Z,99.99
2017-01-22T06:18:17.239Z,99.99
2017-01-22T06:19:17.214Z,99.99
2017-01-22T06:20:17.183Z,99.99
2017-01-22T06:21:17.152Z,99.99
2017-01-22T06:22:17.126Z,99.99
2017-01-22T06:23:17.097Z,99.99
2017-01-22T06:24:17.089Z,99.99
2017-01-22T06:25:17.052Z,99.99
2017-01-22T06:26:17.016Z,99.99
2017-01-22T06:27:16.986Z,99.99
2017-01-22T06:28:16.963Z,99.99
2017-01-22T06:29:16.938Z,99.99
2017-01-22T06:30:16.908Z,99.99
2017-01-22T06:31:16.884Z,99.83
2017-01-22T06:32:16.851Z,99.99
2017-01-22T06:33:16.826Z,99.99
2017-01-22T06:34:16.793Z,99.99
2017-01-22T06:35:16.770Z,99.99
2017-01-22T06:36:16.739Z,99.99
2017-01-22T06:37:16.713Z,99.99
2017-01-22T06:38:16.684Z,99.99
2017-01-22T06:39:16.656Z,99.99
2017-01-22T06:40:16.655Z,99.99
2017-01-22T06:41:16.603Z,99.99
2017-01-22T06:42:16.576Z,99.99
2017-01-22T06:43:16.548Z,99.99
2017-01-22T06:44:16.518Z,99.99
2017-01-22T06:45:16.493Z,99.99
2017-01-22T06:46:16.466Z,99.99
2017-01-22T06:47:16.439Z,99.99
2017-01-22T06:48:16.411Z,99.99
2017-01-22T06:49:16.380Z,99.99
2017-01-22T06:50:16.356Z,99.99
2017-01-22T06:51:16.327Z,99.99
2017-01-22T06:52:16.302Z,99.99
2017-01-22T06:53:16.298Z,99.99
2017-01-22T06:54:16.251Z,99.99
2017-01-22T06:55:16.217Z,99.99
2017-01-22T06:56:16.186Z,99.99
2017-01-22T06:57:16.158Z,99.99
2017-01-22T06:58:16.131Z,99.99
2017-01-22T06:59:16.108Z,99.99
2017-01-22T07:00:16.081Z,99.99
2017-01-22T07:01:16.057Z,99.99
2017-01-22T07:02:16.019Z,99.99
2017-01-22T07:03:15.998Z,99.99
2017-01-22T07:04:15.968Z,99.99
2017-01-22T07:05:15.934Z,99.99
2017-01-22T07:06:15.906Z,99.99
2017-01-22T07:07:15.881Z,99.99
2017-01-22T07:08:15.854Z,99.99
2017-01-22T07:09:15.823Z,99.99
2017-01-22T07:10:15.802Z,99.99
2017-01-22T07:11:15.771Z,99.99
2017-01-22T07:12:15.739Z,99.99
2017-01-22T07:13:15.713Z,99.99
2017-01-22T07:14:15.687Z,99.99
2017-01-22T07:15:15.658Z,99.99
2017-01-22T07:16:15.630Z,99.99
2017-01-22T07:17:15.601Z,99.99
2017-01-22T07:18:15.571Z,99.99
2017-01-22T07:19:15.546Z,99.99
2017-01-22T07:20:15.517Z,99.99
2017-01-22T07:21:15.492Z,99.99
2017-01-22T07:22:15.514Z,99.99
2017-01-22T07:23:15.436Z,99.99
2017-01-22T07:24:15.404Z,99.99
2017-01-22T07:25:15.382Z,99.99
2017-01-22T07:26:15.353Z,99.99
2017-01-22T07:27:15.321Z,99.99
2017-01-22T07:28:15.296Z,99.99
2017-01-22T07:29:15.266Z,99.99
2017-01-22T07:30:15.240Z,99.99
2017-01-22T07:31:15.207Z,99.99
2017-01-22T07:32:15.186Z,99.99
2017-01-22T07:33:15.163Z,99.99
2017-01-22T07:34:15.125Z,99.99
2017-01-22T07:35:15.126Z,99.99
2017-01-22T07:36:15.075Z,99.99
2017-01-22T07:37:15.044Z,99.99
2017-01-22T07:38:15.016Z,99.99
2017-01-22T07:39:14.991Z,99.99
2017-01-22T07:40:14.960Z,99.99
2017-01-22T07:41:14.931Z,99.99
2017-01-22T07:42:14.903Z,99.99
2017-01-22T07:43:14.880Z,99.99
2017-01-22T07:44:14.850Z,99.99
2017-01-22T07:45:14.830Z,99.99
2017-01-22T07:46:14.795Z,99.99
2017-01-22T07:47:14.793Z,99.99
2017-01-22T07:48:14.738Z,99.99
2017-01-22T07:49:14.708Z,99.99
2017-01-22T07:50:14.686Z,99.99
2017-01-22T07:51:14.658Z,99.99
2017-01-22T07:52:14.828Z,99.99
2017-01-22T07:53:14.599Z,99.99
2017-01-22T07:54:14.573Z,99.99
2017-01-22T07:55:14.547Z,99.99
2017-01-22T07:56:14.518Z,99.99
2017-01-22T07:57:14.492Z,99.99
2017-01-22T07:58:14.462Z,99.99
2017-01-22T07:59:14.431Z,99.99
2017-01-22T08:00:14.407Z,99.99
2017-01-22T08:01:14.379Z,99.93
2017-01-22T08:02:14.348Z,99.99
2017-01-22T08:03:14.322Z,99.99
2017-01-22T08:04:14.295Z,99.99
2017-01-22T08:05:14.269Z,99.99
2017-01-22T08:06:14.237Z,99.99
2017-01-22T08:07:14.213Z,99.99
2017-01-22T08:08:14.186Z,99.99
2017-01-22T08:09:14.159Z,99.74
2017-01-22T08:10:14.128Z,99.93
2017-01-22T08:11:14.104Z,99.99
2017-01-22T08:12:14.075Z,99.99
2017-01-22T08:13:14.046Z,99.99
2017-01-22T08:14:14.412Z,99.99
2017-01-22T08:15:13.991Z,99.79
2017-01-22T08:16:13.966Z,99.79
2017-01-22T08:17:13.940Z,99.88
2017-01-22T08:18:13.935Z,99.6
2017-01-22T08:19:13.881Z,99.99
2017-01-22T08:20:13.857Z,99.99
2017-01-22T08:21:13.827Z,99.98
2017-01-22T08:22:13.804Z,99.13
2017-01-22T08:23:13.772Z,99.51
2017-01-22T08:24:13.744Z,99.6
2017-01-22T08:25:13.719Z,99.99
2017-01-22T08:26:13.736Z,99.41
2017-01-22T08:27:13.668Z,99.88
2017-01-22T08:28:13.634Z,99.88
2017-01-22T08:29:13.607Z,99.22
2017-01-22T08:30:13.581Z,99.6
2017-01-22T08:31:13.552Z,97.14
2017-01-22T08:32:13.529Z,97.14
2017-01-22T08:33:13.499Z,96.01
2017-01-22T08:34:13.489Z,95.36
2017-01-22T08:35:13.444Z,95.45
2017-01-22T08:36:13.419Z,95.17
2017-01-22T08:37:13.399Z,94.79
2017-01-22T08:38:13.364Z,94.32
2017-01-22T08:39:13.343Z,94.32
2017-01-22T08:40:13.309Z,94.6
2017-01-22T08:41:13.282Z,94.79
2017-01-22T08:42:13.259Z,94.79
2017-01-22T08:43:13.233Z,94.79
2017-01-22T08:44:13.201Z,95.45
2017-01-22T08:45:13.174Z,95.26
2017-01-22T08:46:13.147Z,95.26
2017-01-22T08:47:13.126Z,95.31
2017-01-22T08:48:13.107Z,95.21
2017-01-22T08:49:13.108Z,95.31
2017-01-22T08:50:13.597Z,95.21
2017-01-22T08:51:13.028Z,95.12
2017-01-22T08:52:12.995Z,95.12
2017-01-22T08:53:12.970Z,95.12
2017-01-22T08:54:12.957Z,95.31
2017-01-22T08:55:12.910Z,95.31
2017-01-22T08:56:12.887Z,95.21
2017-01-22T08:57:12.856Z,95.31
2017-01-22T08:58:12.833Z,95.4
2017-01-22T08:59:12.812Z,94.65
2017-01-22T09:00:12.780Z,94.65
2017-01-22T09:01:12.755Z,94.18
2017-01-22T09:02:12.731Z,94.65
2017-01-22T09:03:12.728Z,94.27
2017-01-22T09:04:12.676Z,94.93
2017-01-22T09:05:12.649Z,94.65
2017-01-22T09:06:12.623Z,94.55
2017-01-22T09:07:12.599Z,95.03
2017-01-22T09:08:12.572Z,94.84
2017-01-22T09:09:12.544Z,94.84
2017-01-22T09:10:12.516Z,94.65
2017-01-22T09:11:12.490Z,94.65
2017-01-22T09:12:12.466Z,94.65
2017-01-22T09:13:12.444Z,94.84
2017-01-22T09:14:12.411Z,94.84
2017-01-22T09:15:12.395Z,95.03
2017-01-22T09:16:12.360Z,95.03
2017-01-22T09:17:12.335Z,94.65
2017-01-22T09:18:12.312Z,94.84
2017-01-22T09:19:12.285Z,94.65
2017-01-22T09:20:12.259Z,94.55
2017-01-22T09:21:12.239Z,94.7
2017-01-22T09:22:12.205Z,94.98
2017-01-22T09:23:12.191Z,95.07
2017-01-22T09:24:12.162Z,94.89
2017-01-22T09:25:12.134Z,94.7
2017-01-22T09:26:12.113Z,95.07
2017-01-22T09:27:12.084Z,95.45
2017-01-22T09:28:12.254Z,95.26
2017-01-22T09:29:12.030Z,95.26
2017-01-22T09:30:12.006Z,95.36
2017-01-22T09:31:12.030Z,95.54
2017-01-22T09:32:11.995Z,95.64
2017-01-22T09:33:11.977Z,95.73
2017-01-22T09:34:11.904Z,96.2
2017-01-22T09:35:11.882Z,95.92
2017-01-22T09:36:11.853Z,96.49
2017-01-22T09:37:11.845Z,96.86
2017-01-22T09:38:11.807Z,96.39
2017-01-22T09:39:11.780Z,97.05
2017-01-22T09:40:11.756Z,96.96
2017-01-22T09:41:11.729Z,96.77
2017-01-22T09:42:11.709Z,97.67
2017-01-22T09:43:11.681Z,97.58
2017-01-22T09:44:11.658Z,98.8
2017-01-22T09:45:11.635Z,99.99
2017-01-22T09:46:11.609Z,99.99
2017-01-22T09:47:11.588Z,99.99
2017-01-22T09:48:11.562Z,99.99
2017-01-22T09:49:11.558Z,99.99
2017-01-22T09:50:11.515Z,99.99
2017-01-22T09:51:11.489Z,99.99
2017-01-22T09:52:11.673Z,99.99
2017-01-22T09:53:11.450Z,99.99
2017-01-22T09:54:11.433Z,99.99
2017-01-22T09:55:11.400Z,99.99
2017-01-22T09:56:11.382Z,99.99
2017-01-22T09:57:11.358Z,99.99
2017-01-22T09:58:11.385Z,99.99
2017-01-22T09:59:11.311Z,99.99
2017-01-22T10:00:11.290Z,99.99
2017-01-22T10:01:11.271Z,99.99
2017-01-22T10:02:11.253Z,99.99
2017-01-22T10:03:11.226Z,99.99
2017-01-22T10:04:11.204Z,99.99
2017-01-22T10:05:11.637Z,99.99
2017-01-22T10:06:11.166Z,99.99
2017-01-22T10:07:11.152Z,99.99
2017-01-22T10:08:11.124Z,99.99
2017-01-22T10:09:11.106Z,99.99
2017-01-22T10:10:11.087Z,99.99
2017-01-22T10:11:11.064Z,99.99
2017-01-22T10:12:11.045Z,99.99
2017-01-22T10:13:11.022Z,99.99
2017-01-22T10:14:11.413Z,99.99
2017-01-22T10:15:10.987Z,99.99
2017-01-22T10:16:10.966Z,99.99
2017-01-22T10:17:10.963Z,99.99
2017-01-22T10:18:10.926Z,99.99
2017-01-22T10:19:10.906Z,99.99
2017-01-22T10:20:10.887Z,99.99
2017-01-22T10:21:10.870Z,99.99
2017-01-22T10:22:10.852Z,99.99
2017-01-22T10:23:10.832Z,99.99
2017-01-22T10:24:10.817Z,99.99
2017-01-22T10:25:10.801Z,99.99
2017-01-22T10:26:10.780Z,99.99
2017-01-22T10:27:10.765Z,99.99
2017-01-22T10:28:10.746Z,99.99
2017-01-22T10:29:10.735Z,99.99
2017-01-22T10:30:10.712Z,99.99
2017-01-22T10:31:10.694Z,99.99
2017-01-22T10:32:10.684Z,99.99
2017-01-22T10:33:10.665Z,99.99
2017-01-22T10:34:10.651Z,99.99
2017-01-22T10:35:10.672Z,99.3
2017-01-22T10:36:10.627Z,99.99
2017-01-22T10:37:10.604Z,99.99
2017-01-22T10:38:10.584Z,98.69
2017-01-22T10:39:10.568Z,99.26
2017-01-22T10:40:10.554Z,98.97
2017-01-22T10:41:10.556Z,89.9
2017-01-22T10:42:10.560Z,90.85
2017-01-22T10:43:10.512Z,92.99
2017-01-22T10:44:10.501Z,94.37
2017-01-22T10:45:10.483Z,93.13
2017-01-22T10:46:10.469Z,92.89
2017-01-22T10:47:10.456Z,86.05
2017-01-22T10:48:10.440Z,84.76
2017-01-22T10:49:10.429Z,84.76
2017-01-22T10:50:10.429Z,83.62
2017-01-22T10:51:10.402Z,81.33
2017-01-22T10:52:10.393Z,81.38
2017-01-22T10:53:10.377Z,81.48
2017-01-22T10:54:10.367Z,76.2
2017-01-22T10:55:10.353Z,82.53
2017-01-22T10:56:10.340Z,84.28
2017-01-22T10:57:10.337Z,84.52
2017-01-22T10:58:10.321Z,79.09
2017-01-22T10:59:10.305Z,75.13
2017-01-22T11:00:10.327Z,77.95
2017-01-22T11:01:10.321Z,77.89
2017-01-22T11:02:10.289Z,79.19
2017-01-22T11:03:10.259Z,77.56
2017-01-22T11:04:10.250Z,78.42
2017-01-22T11:05:10.236Z,78.48
2017-01-22T11:06:10.231Z,79.05
2017-01-22T11:07:10.216Z,79.52
2017-01-22T11:08:10.204Z,78.48
2017-01-22T11:09:10.192Z,76.44
2017-01-22T11:10:10.184Z,78.77
2017-01-22T11:11:10.173Z,79.52
2017-01-22T11:12:10.158Z,75.53
2017-01-22T11:13:10.146Z,77.34
2017-01-22T11:14:10.136Z,78.1
2017-01-22T11:15:10.129Z,79.05
2017-01-22T11:16:10.118Z,80.76
2017-01-22T11:17:10.140Z,79.24
2017-01-22T11:18:10.104Z,80.57
2017-01-22T11:19:10.085Z,79.05
2017-01-22T11:20:10.077Z,81.05
2017-01-22T11:21:10.066Z,78.96
2017-01-22T11:22:10.448Z,76.76
2017-01-22T11:23:10.043Z,78.1
2017-01-22T11:24:10.032Z,79.24
2017-01-22T11:25:10.031Z,77.62
2017-01-22T11:26:10.015Z,77.81
2017-01-22T11:27:10.000Z,75.43
2017-01-22T11:28:09.998Z,70.39
2017-01-22T11:29:09.980Z,71.53
2017-01-22T11:30:09.987Z,72.96
2017-01-22T11:31:09.965Z,72.67
2017-01-22T11:32:09.950Z,73.44
2017-01-22T11:33:09.943Z,73.53
2017-01-22T11:34:09.939Z,73.19
2017-01-22T11:35:09.923Z,69.95
2017-01-22T11:36:09.917Z,67.38
2017-01-22T11:37:09.903Z,67.38
2017-01-22T11:38:09.928Z,67.86
2017-01-22T11:39:09.892Z,70.68
2017-01-22T11:40:09.875Z,70.1
2017-01-22T11:41:09.890Z,71.44
2017-01-22T11:42:09.857Z,71.91
2017-01-22T11:43:09.849Z,72.2
2017-01-22T11:44:09.844Z,74.52
2017-01-22T11:45:09.856Z,75.19
2017-01-22T11:46:10.221Z,75.57
2017-01-22T11:47:09.823Z,74.99
2017-01-22T11:48:09.805Z,76.2
2017-01-22T11:49:09.800Z,76.67
2017-01-22T11:50:09.781Z,78.44
2017-01-22T11:51:09.773Z,80.82
2017-01-22T11:52:09.968Z,81.92
2017-01-22T11:53:09.764Z,87.1
2017-01-22T11:54:09.743Z,90.42
2017-01-22T11:55:09.727Z,93.32
2017-01-22T11:56:09.720Z,94.18
2017-01-22T11:57:09.703Z,94.84
2017-01-22T11:58:09.693Z,94.27
2017-01-22T11:59:09.681Z,92.9
2017-01-22T12:00:09.669Z,94.6
2017-01-22T12:01:09.656Z,97.17
2017-01-22T12:02:09.640Z,97.17
2017-01-22T12:03:09.630Z,98.02
2017-01-22T12:04:09.629Z,98.07
2017-01-22T12:05:09.606Z,98.82
2017-01-22T12:06:09.592Z,98.92
2017-01-22T12:07:09.574Z,98.44
2017-01-22T12:08:09.556Z,98.16
2017-01-22T12:09:09.545Z,98.82
2017-01-22T12:10:09.529Z,99.99
2017-01-22T12:11:09.514Z,99.99
2017-01-22T12:12:09.502Z,99.99
2017-01-22T12:13:09.496Z,99.99
2017-01-22T12:14:09.470Z,99.99
2017-01-22T12:15:09.454Z,99.99
2017-01-22T12:16:09.442Z,99.99
2017-01-22T12:17:09.426Z,99.99
2017-01-22T12:18:09.410Z,99.99
2017-01-22T12:19:09.400Z,99.99
2017-01-22T12:20:09.388Z,99.99
2017-01-22T12:21:09.371Z,98.68
2017-01-22T12:22:09.366Z,98.64
2017-01-22T12:23:09.348Z,96.64
2017-01-22T12:24:09.328Z,93.18
2017-01-22T12:25:09.324Z,87.43
2017-01-22T12:26:09.313Z,83.29
2017-01-22T12:27:09.294Z,80.34
2017-01-22T12:28:09.287Z,79.24
2017-01-22T12:29:09.669Z,75.19
2017-01-22T12:30:09.260Z,75.95
2017-01-22T12:31:09.249Z,76.14
2017-01-22T12:32:09.261Z,72.85
2017-01-22T12:33:09.233Z,75.13
2017-01-22T12:34:09.222Z,73.26
2017-01-22T12:35:09.212Z,72.12
2017-01-22T12:36:09.605Z,70.4
2017-01-22T12:37:09.198Z,69.39
2017-01-22T12:38:09.212Z,67.86
2017-01-22T12:39:09.185Z,67.39
2017-01-22T12:40:09.177Z,67.96
2017-01-22T12:41:09.164Z,67.71
2017-01-22T12:42:09.162Z,67.23
2017-01-22T12:43:09.153Z,65.26
2017-01-22T12:44:09.146Z,64.31
2017-01-22T12:45:09.141Z,63.35
2017-01-22T12:46:09.135Z,62.21
2017-01-22T12:47:09.130Z,62.49
2017-01-22T12:48:09.122Z,63.35
2017-01-22T12:49:09.117Z,62.91
2017-01-22T12:50:09.116Z,63.86
2017-01-22T12:51:09.106Z,61.95
2017-01-22T12:52:09.098Z,59.69
2017-01-22T12:53:09.093Z,57.59
2017-01-22T12:54:09.100Z,58.61